createdAt,value
2022-08-25T00:02:25.804Z,1539.00
2022-08-25T00:07:25.034Z,1462.90
2022-08-25T00:12:23.220Z,1999.90
2022-08-25T00:17:23.366Z,1399.40
2022-08-25T00:22:22.696Z,1505.20
2022-08-25T00:27:20.003Z,1402.00
2022-08-25T00:32:20.304Z,1651.40
2022-08-25T00:37:18.604Z,1507.20
2022-08-25T00:42:18.978Z,1727.80
2022-08-25T00:47:17.075Z,1999.90
2022-08-25T00:52:16.362Z,1999.90
2022-08-25T00:57:15.664Z,1999.90
2022-08-25T01:02:15.928Z,1999.90
2022-08-25T01:07:17.770Z,1999.90
2022-08-25T01:12:13.322Z,1699.50
2022-08-25T01:17:13.626Z,1807.00
2022-08-25T01:22:11.915Z,1999.90
2022-08-25T01:27:11.229Z,1999.90
2022-08-25T01:32:10.549Z,1713.50
2022-08-25T01:37:08.854Z,1999.90
2022-08-25T01:42:09.016Z,1692.30
2022-08-25T01:47:08.333Z,1999.90
2022-08-25T01:52:07.638Z,1999.90
2022-08-25T01:57:08.038Z,1556.70
2022-08-25T02:02:05.462Z,1999.90
2022-08-25T02:07:06.477Z,1365.90
2022-08-25T02:12:06.761Z,1528.80
2022-08-25T02:17:05.114Z,1549.30
2022-08-25T02:22:03.285Z,1999.90
2022-08-25T02:27:03.436Z,1999.90
2022-08-25T02:32:01.540Z,1341.70
2022-08-25T02:37:00.893Z,1467.10
2022-08-25T02:42:00.025Z,1999.90
2022-08-25T02:46:58.341Z,1395.80
2022-08-25T02:52:00.654Z,1999.90
2022-08-25T02:56:59.845Z,1399.60
2022-08-25T03:01:57.133Z,1999.90
2022-08-25T03:06:57.523Z,1760.60
2022-08-25T03:11:56.669Z,1527.80
2022-08-25T03:16:54.866Z,1999.90
2022-08-25T03:21:54.012Z,1513.80
2022-08-25T03:26:53.168Z,1427.10
2022-08-25T03:31:52.576Z,1867.30
2022-08-25T03:36:51.716Z,1509.90
2022-08-25T03:41:51.849Z,1540.50
2022-08-25T03:46:51.143Z,1545.20
2022-08-25T03:51:50.453Z,1999.90
2022-08-25T03:56:48.761Z,1517.80
2022-08-25T04:01:52.632Z,1999.90
2022-08-25T04:06:47.343Z,1999.90
2022-08-25T04:11:46.559Z,1999.90
2022-08-25T04:16:46.755Z,1609.50
2022-08-25T04:21:44.896Z,1576.00
2022-08-25T04:26:43.263Z,1412.00
2022-08-25T04:31:43.399Z,1990.20
2022-08-25T04:36:42.637Z,1999.90
2022-08-25T04:41:41.773Z,1999.90
2022-08-25T04:46:41.131Z,1538.70
2022-08-25T04:51:41.300Z,1372.00
2022-08-25T04:56:40.430Z,1257.20
2022-08-25T05:01:39.734Z,1316.90
2022-08-25T05:06:38.052Z,1738.80
2022-08-25T05:11:39.362Z,1999.90
2022-08-25T05:16:36.775Z,1461.50
2022-08-25T05:21:36.918Z,1400.20
2022-08-25T05:26:35.212Z,1482.10
2022-08-25T05:31:36.423Z,1999.90
2022-08-25T05:36:33.638Z,1999.90
2022-08-25T05:41:33.811Z,1984.90
2022-08-25T05:46:32.026Z,1999.90
2022-08-25T05:51:32.170Z,1365.20
2022-08-25T05:56:32.526Z,1421.30
2022-08-25T06:01:29.770Z,1999.90
2022-08-25T06:06:29.960Z,1999.90
2022-08-25T06:11:28.101Z,1689.30
2022-08-25T06:16:27.270Z,1471.40
2022-08-25T06:21:26.430Z,1999.90
2022-08-25T06:26:25.731Z,1974.40
2022-08-25T06:31:26.130Z,1999.90
2022-08-25T06:36:25.255Z,1598.00
2022-08-25T06:41:23.381Z,1507.80
2022-08-25T06:46:34.718Z,1261.10
2022-08-25T06:51:21.929Z,1230.60
2022-08-25T06:56:21.098Z,1995.30
2022-08-25T07:01:20.559Z,1999.90
2022-08-25T07:06:19.628Z,1999.90
2022-08-25T07:11:18.746Z,1428.70
2022-08-25T07:16:18.108Z,1809.10
2022-08-25T07:21:18.791Z,1415.20
2022-08-25T07:31:15.849Z,1615.30
2022-08-25T07:36:16.937Z,1999.90
2022-08-25T07:41:14.299Z,1272.80
2022-08-25T07:46:13.443Z,1943.30
2022-08-25T07:51:12.850Z,1702.00
2022-08-25T07:56:12.962Z,1999.90
2022-08-25T08:01:12.273Z,1999.90
2022-08-25T08:06:10.572Z,1194.50
2022-08-25T08:11:10.753Z,1199.60
2022-08-25T08:16:09.085Z,1999.90
2022-08-25T08:21:08.193Z,1999.90
2022-08-25T08:26:07.485Z,1137.50
2022-08-25T08:31:06.702Z,1999.90
2022-08-25T08:36:05.852Z,1999.90
2022-08-25T08:41:05.162Z,1024.40
2022-08-25T08:46:06.471Z,1436.90
2022-08-25T08:51:02.636Z,1041.30
2022-08-25T08:56:02.867Z,1166.80
2022-08-25T09:01:02.008Z,1163.20
2022-08-25T09:06:01.191Z,1660.30
2022-08-25T09:11:00.326Z,1256.30
2022-08-25T09:15:59.667Z,1999.90
2022-08-25T09:20:58.909Z,1427.50
2022-08-25T09:25:58.173Z,1999.90
2022-08-25T09:30:57.339Z,1430.80
2022-08-25T09:35:57.259Z,1565.70
2022-08-25T09:40:55.746Z,1220.60
2022-08-25T09:45:56.013Z,1525.50
2022-08-25T09:50:55.160Z,1999.90
2022-08-25T09:55:59.915Z,1289.00
2022-08-25T10:00:54.646Z,1090.20
2022-08-25T10:05:56.271Z,1531.30
2022-08-25T10:10:53.198Z,1442.70
2022-08-25T10:15:51.499Z,1983.60
2022-08-25T10:20:50.703Z,1380.60
2022-08-25T10:25:58.001Z,1999.90
2022-08-25T10:30:48.041Z,1999.90
2022-08-25T10:35:47.343Z,1302.00
2022-08-25T10:40:48.510Z,1194.70
2022-08-25T10:45:46.904Z,1999.90
2022-08-25T10:50:49.043Z,1999.90
2022-08-25T10:55:45.944Z,1573.90
2022-08-25T11:00:46.634Z,1985.10
2022-08-25T11:05:42.820Z,1999.90
2022-08-25T11:10:42.102Z,1999.90
2022-08-25T11:15:54.579Z,1866.90
2022-08-25T11:20:41.601Z,1999.90
2022-08-25T11:25:40.888Z,1999.90
2022-08-25T11:30:40.154Z,1999.90
2022-08-25T11:35:38.443Z,1999.90
2022-08-25T11:40:38.633Z,1999.90
2022-08-25T11:45:37.860Z,1751.40
2022-08-25T11:50:38.019Z,1584.20
2022-08-25T11:55:35.122Z,1321.60
2022-08-25T12:00:35.458Z,1307.80
2022-08-25T12:05:34.841Z,1250.90
2022-08-25T12:10:34.090Z,1634.30
2022-08-25T12:15:34.409Z,1532.20
2022-08-25T12:20:33.713Z,1396.90
2022-08-25T12:25:30.991Z,1190.80
2022-08-25T12:30:30.269Z,1490.80
2022-08-25T12:35:29.857Z,1429.80
2022-08-25T12:40:28.822Z,1174.80
2022-08-25T12:45:28.067Z,1229.20
2022-08-25T12:50:27.176Z,1325.30
2022-08-25T12:55:27.374Z,1157.90
2022-08-25T13:05:26.125Z,1161.70
2022-08-25T13:10:25.231Z,1201.40
2022-08-25T13:15:23.537Z,929.70
2022-08-25T13:20:23.845Z,1119.10
2022-08-25T13:25:23.047Z,1111.60
2022-08-25T13:30:21.163Z,1002.60
2022-08-25T13:35:22.913Z,944.20
2022-08-25T13:40:20.859Z,1042.60
2022-08-25T13:45:18.950Z,1045.60
2022-08-25T13:50:20.264Z,970.30
2022-08-25T13:55:17.555Z,950.80
2022-08-25T14:00:16.687Z,877.70
2022-08-25T14:05:16.003Z,1018.30
2022-08-25T14:10:15.274Z,1056.10
2022-08-25T14:15:15.390Z,1131.70
2022-08-25T14:20:15.698Z,1084.00
2022-08-25T14:25:13.866Z,1040.70
2022-08-25T14:30:13.205Z,1171.50
2022-08-25T14:35:11.355Z,1080.00
2022-08-25T14:40:09.558Z,1029.10
2022-08-25T14:45:09.663Z,1113.50
2022-08-25T14:50:09.972Z,1118.10
2022-08-25T14:55:09.262Z,1094.40
2022-08-25T15:00:09.106Z,1079.30
2022-08-25T15:05:06.864Z,1065.80
2022-08-25T15:10:06.150Z,1093.90
2022-08-25T15:15:06.450Z,1079.30
2022-08-25T15:20:06.410Z,1238.30
2022-08-25T15:25:05.940Z,1140.00
2022-08-25T15:30:04.060Z,1123.90
2022-08-25T15:35:02.376Z,1059.90
2022-08-25T15:40:03.716Z,1170.10
2022-08-25T15:45:01.809Z,1045.70
2022-08-25T15:50:00.118Z,1122.10
2022-08-25T15:54:59.448Z,1021.10
2022-08-25T15:59:59.589Z,1024.40
2022-08-25T16:04:57.777Z,995.00
2022-08-25T16:09:57.308Z,893.70
2022-08-25T16:14:55.244Z,992.70
2022-08-25T16:19:55.387Z,1016.20
2022-08-25T16:24:54.539Z,1117.80
2022-08-25T16:29:55.856Z,1144.30
2022-08-25T16:34:55.180Z,1053.00
2022-08-25T16:39:53.607Z,976.20
2022-08-25T16:44:53.775Z,712.90
2022-08-25T16:49:50.894Z,833.60
2022-08-25T16:54:51.153Z,798.70
2022-08-25T16:59:51.421Z,900.90
2022-08-25T17:04:48.691Z,906.90
2022-08-25T17:09:47.974Z,872.50
2022-08-25T17:14:48.082Z,821.20
2022-08-25T17:19:46.122Z,938.10
2022-08-25T17:24:45.704Z,948.10
2022-08-25T17:29:45.925Z,890.20
2022-08-25T17:34:44.173Z,793.50
2022-08-25T17:39:43.534Z,961.40
2022-08-25T17:44:42.662Z,1249.50
2022-08-25T17:49:42.045Z,978.80
2022-08-25T17:54:40.216Z,1999.90
2022-08-25T17:59:40.434Z,1999.90
2022-08-25T18:04:39.567Z,1490.60
2022-08-25T18:09:39.938Z,1437.30
2022-08-25T18:14:40.089Z,1337.80
2022-08-25T18:19:39.392Z,1273.40
2022-08-25T18:24:36.682Z,1465.20
2022-08-25T18:29:35.819Z,1473.00
2022-08-25T18:34:36.157Z,1387.60
2022-08-25T18:39:34.882Z,1335.70
2022-08-25T18:44:33.674Z,1315.90
2022-08-25T18:49:32.978Z,1999.90
2022-08-25T18:54:32.443Z,1288.30
2022-08-25T18:59:31.618Z,1344.80
2022-08-25T19:04:31.762Z,1510.30
2022-08-25T19:09:30.645Z,1275.00
2022-08-25T19:14:30.490Z,1083.40
2022-08-25T19:19:28.691Z,1192.60
2022-08-25T19:24:27.903Z,1999.90
2022-08-25T19:29:30.324Z,1448.50
2022-08-25T19:34:28.413Z,1010.90
2022-08-25T19:39:25.514Z,1999.90
2022-08-25T19:44:28.832Z,1999.90
2022-08-25T19:49:26.220Z,1999.90
2022-08-25T19:54:24.404Z,1999.90
2022-08-25T19:59:22.728Z,1823.50
2022-08-25T20:04:24.111Z,1999.90
2022-08-25T20:09:39.206Z,1999.90
2022-08-25T20:14:22.460Z,1999.90
2022-08-25T20:19:21.435Z,1999.90
2022-08-25T20:24:19.530Z,1995.70
2022-08-25T20:29:17.844Z,1999.90
2022-08-25T20:34:17.214Z,1999.90
2022-08-25T20:39:16.397Z,1999.90
2022-08-25T20:44:16.751Z,1999.90
2022-08-25T20:49:15.041Z,1999.90
2022-08-25T20:54:14.333Z,1537.90
2022-08-25T20:59:13.516Z,1999.90
2022-08-25T21:04:14.743Z,1546.80
2022-08-25T21:09:15.943Z,1999.90
2022-08-25T21:14:12.249Z,1962.10
2022-08-25T21:19:11.553Z,1999.90
2022-08-25T21:24:10.195Z,1588.20
2022-08-25T21:29:12.131Z,1999.90
2022-08-25T21:34:10.407Z,1999.90
2022-08-25T21:39:08.702Z,1999.90
2022-08-25T21:44:07.027Z,1589.50
2022-08-25T21:49:07.344Z,1999.90
2022-08-25T21:54:06.581Z,1999.90
2022-08-25T21:59:04.881Z,1999.90
2022-08-25T22:04:04.038Z,1999.90
2022-08-25T22:09:03.355Z,1999.90
2022-08-25T22:14:02.527Z,1999.90
2022-08-25T22:19:01.870Z,1999.90
2022-08-25T22:24:01.189Z,1999.90
2022-08-25T22:29:01.516Z,1263.10
2022-08-25T22:33:59.641Z,1407.90
2022-08-25T22:39:00.792Z,7.20
2022-08-25T22:44:00.523Z,16.60
2022-08-25T22:48:59.451Z,21.30
2022-08-25T22:53:56.563Z,17.00
2022-08-25T22:58:55.917Z,11.60
2022-08-25T23:03:58.248Z,8.90
2022-08-25T23:08:54.609Z,9.00
2022-08-25T23:13:53.817Z,7.60
2022-08-25T23:18:54.158Z,7.10
2022-08-25T23:23:52.349Z,6.50
2022-08-25T23:28:51.473Z,6.20
2022-08-25T23:33:50.858Z,8.20
2022-08-25T23:38:52.039Z,5.30
2022-08-25T23:43:49.260Z,7.60
2022-08-25T23:48:48.426Z,6.80
2022-08-25T23:53:48.576Z,7.10
2022-08-25T23:58:46.773Z,8.30
